Time;durP1;ratioP1;P1;durP2;ratioP2;P2;SDS_P1;SDS_P2;PMS_P1;PMS_P2;Temp;Humidity;BMP_temperature;BMP_pressure;BME280_temperature;BME280_humidity;BME280_pressure;Samples;Min_cycle;Max_cycle;Signal;HPM_P1;HPM_P2
2021/08/06 00:00:35;;;;;;;3.30;3.00;;;;;;;19.08;68.98;98461.41;4994795;28;20239;-91
2021/08/06 00:03:02;;;;;;;4.17;3.37;;;;;;;19.12;68.37;98449.63;4979044;28;20318;-91
2021/08/06 00:05:29;;;;;;;3.30;3.10;;;;;;;19.05;68.66;98446.50;4978899;28;20237;-91
2021/08/06 00:07:56;;;;;;;3.40;3.10;;;;;;;19.07;68.90;98448.94;4994727;28;20223;-92
2021/08/06 00:10:23;;;;;;;3.23;3.00;;;;;;;19.05;68.87;98457.38;4978631;28;20625;-91
2021/08/06 00:12:50;;;;;;;3.73;2.67;;;;;;;18.98;69.33;98448.03;4963076;28;20322;-89
2021/08/06 00:15:17;;;;;;;3.23;2.90;;;;;;;18.84;69.32;98440.72;4978910;28;20232;-91
2021/08/06 00:17:44;;;;;;;3.17;2.87;;;;;;;18.69;69.67;98449.13;4978690;28;20228;-91
2021/08/06 00:20:11;;;;;;;3.40;3.10;;;;;;;18.60;70.24;98455.56;4962130;28;20315;-91
2021/08/06 00:22:39;;;;;;;3.60;2.90;;;;;;;18.52;70.59;98448.09;4978361;28;20236;-90
2021/08/06 00:25:06;;;;;;;4.17;3.53;;;;;;;18.43;70.66;98445.25;4978431;28;20359;-89
2021/08/06 00:27:33;;;;;;;4.10;3.30;;;;;;;18.40;70.66;98451.28;4978761;28;20901;-91
2021/08/06 00:29:59;;;;;;;3.50;3.07;;;;;;;18.30;70.96;98451.44;4978540;28;20235;-92
2021/08/06 00:32:26;;;;;;;3.43;3.20;;;;;;;18.22;70.79;98452.94;4978443;28;20231;-91
2021/08/06 00:34:59;;;;;;;3.60;3.30;;;;;;;18.18;71.26;98460.06;4978462;28;20650;-91
2021/08/06 00:37:28;;;;;;;3.87;3.40;;;;;;;18.01;71.50;98436.22;4978343;28;20228;-90
2021/08/06 00:39:59;;;;;;;3.90;3.50;;;;;;;18.03;71.47;98442.16;4955002;28;1137398;-91
2021/08/06 00:42:28;;;;;;;3.57;3.37;;;;;;;18.08;71.42;98448.59;4967340;28;20228;-91
2021/08/06 00:44:56;;;;;;;3.77;3.47;;;;;;;18.07;71.86;98453.19;4999143;28;20231;-91
2021/08/06 00:47:28;;;;;;;4.73;3.97;;;;;;;17.92;72.46;98438.00;4983136;28;20635;-92
2021/08/06 00:49:56;;;;;;;4.90;4.13;;;;;;;18.11;71.79;98447.97;4983140;28;20231;-92
2021/08/06 00:52:23;;;;;;;6.23;4.63;;;;;;;18.11;71.68;98456.94;4966649;28;20318;-91
2021/08/06 00:54:50;;;;;;;4.87;4.47;;;;;;;18.11;71.86;98448.78;4967447;28;20255;-92
2021/08/06 00:57:17;;;;;;;4.70;4.30;;;;;;;18.30;71.34;98463.09;4982902;28;20650;-92
2021/08/06 00:59:53;;;;;;;5.17;4.60;;;;;;;18.37;70.62;98460.00;4968070;28;20277;-91
2021/08/06 01:02:47;;;;;;;5.23;4.77;;;;;;;18.45;70.84;98457.41;4982321;28;20227;-91
2021/08/06 01:05:17;;;;;;;5.23;4.80;;;;;;;18.54;70.84;98454.03;4982526;28;20719;-91
2021/08/06 01:08:03;;;;;;;4.83;4.43;;;;;;;18.65;70.31;98453.56;4982808;28;20231;-92
2021/08/06 01:10:57;;;;;;;5.20;4.80;;;;;;;18.79;69.73;98448.94;4998587;28;20232;-91
2021/08/06 01:13:44;;;;;;;4.90;4.50;;;;;;;18.89;69.25;98456.09;4964691;28;20543;-91
2021/08/06 01:16:13;;;;;;;5.67;4.50;;;;;;;18.88;69.56;98449.84;4966699;28;20232;-93
2021/08/06 01:18:54;;;;;;;6.10;4.67;;;;;;;18.91;68.82;98441.09;4984197;28;20227;-93
2021/08/06 01:21:27;;;;;;;4.43;4.07;;;;;;;19.00;68.68;98448.53;4983417;28;20231;-92
2021/08/06 01:23:57;;;;;;;4.57;4.17;;;;;;;19.05;67.68;98443.00;4981927;28;20250;-91
2021/08/06 01:26:24;;;;;;;4.50;4.10;;;;;;;19.04;67.50;98441.38;4965426;28;20247;-92
2021/08/06 01:28:55;;;;;;;4.70;4.17;;;;;;;19.20;67.20;98453.53;4981743;28;20277;-91
2021/08/06 01:31:28;;;;;;;4.57;4.17;;;;;;;19.17;67.28;98446.00;4997656;28;20240;-91
2021/08/06 01:34:09;;;;;;;4.50;4.10;;;;;;;19.28;66.88;98452.81;4981354;28;20721;-93
2021/08/06 01:36:36;;;;;;;4.40;4.00;;;;;;;19.29;66.28;98446.28;4982130;28;20232;-91
2021/08/06 01:39:04;;;;;;;4.80;4.30;;;;;;;19.29;66.37;98449.00;4981372;28;20538;-91
2021/08/06 01:42:40;;;;;;;4.90;4.40;;;;;;;19.39;66.50;98454.22;4983802;28;20246;-91
2021/08/06 01:45:12;;;;;;;5.13;4.17;;;;;;;19.40;66.54;98446.88;4940495;28;20314;-91
2021/08/06 01:47:42;;;;;;;4.77;4.37;;;;;;;19.43;65.83;98452.50;4981050;28;20697;-91
2021/08/06 01:50:31;;;;;;;4.33;3.93;;;;;;;19.39;65.53;98440.63;4983859;28;20635;-92
2021/08/06 01:53:04;;;;;;;4.23;3.40;;;;;;;19.65;64.77;98443.59;4996500;28;20285;-92
2021/08/06 01:56:07;;;;;;;3.20;2.90;;;;;;;19.71;65.12;98454.06;4981306;28;20231;-91
2021/08/06 01:58:52;;;;;;;3.60;3.30;;;;;;;19.78;64.48;98459.84;4966502;28;20239;-91
2021/08/06 02:01:27;;;;;;;3.10;2.70;;;;;;;19.79;64.40;98450.59;4966523;28;20228;-92
2021/08/06 02:04:27;;;;;;;3.30;3.00;;;;;;;19.69;64.86;98445.38;4976556;28;20270;-90
2021/08/06 02:07:05;;;;;;;2.80;2.60;;;;;;;19.68;64.76;98441.09;4995629;28;20700;-91
2021/08/06 02:09:37;;;;;;;3.20;3.00;;;;;;;19.62;65.13;98436.06;4997305;28;20247;-91
2021/08/06 02:12:08;;;;;;;2.60;2.40;;;;;;;19.53;64.94;98430.56;4980670;28;20233;-91
2021/08/06 02:14:50;;;;;;;2.50;2.30;;;;;;;19.59;64.44;98444.84;4980907;28;20231;-89
2021/08/06 02:17:21;;;;;;;2.53;2.33;;;;;;;19.54;65.18;98444.97;4981422;28;20227;-91
2021/08/06 02:19:51;;;;;;;2.43;2.23;;;;;;;19.53;64.69;98446.88;4980935;28;20235;-90
2021/08/06 02:22:21;;;;;;;2.47;2.27;;;;;;;19.51;64.83;98446.34;4980784;28;20227;-91
2021/08/06 02:24:53;;;;;;;2.13;1.93;;;;;;;19.49;64.63;98445.88;4980995;28;20231;-90
2021/08/06 02:27:25;;;;;;;2.13;1.93;;;;;;;19.41;64.71;98438.41;4996462;28;20239;-91
2021/08/06 02:29:56;;;;;;;2.23;2.00;;;;;;;19.43;64.86;98438.09;4980945;28;20318;-92
2021/08/06 02:32:26;;;;;;;1.93;1.80;;;;;;;19.35;64.72;98423.34;4981237;28;20239;-92
2021/08/06 02:34:56;;;;;;;2.93;1.80;;;;;;;19.55;64.02;98436.47;4996396;28;20278;-91
2021/08/06 02:37:23;;;;;;;1.80;1.70;;;;;;;19.61;63.49;98431.75;4948899;28;20224;-92
2021/08/06 02:39:51;;;;;;;2.10;1.90;;;;;;;19.44;64.12;98420.72;4980830;28;20722;-91
2021/08/06 02:42:20;;;;;;;1.63;1.53;;;;;;;19.44;63.74;98418.81;4996127;28;20232;-92
2021/08/06 02:44:47;;;;;;;2.07;1.60;;;;;;;19.28;63.83;98404.75;4948570;28;20236;-91
2021/08/06 02:47:14;;;;;;;1.70;1.60;;;;;;;19.47;63.47;98423.63;4996234;28;20257;-92
2021/08/06 02:49:41;;;;;;;1.93;1.73;;;;;;;19.42;63.44;98428.34;5013053;28;20231;-92
2021/08/06 02:52:08;;;;;;;2.03;1.87;;;;;;;19.41;64.07;98434.91;4980039;28;20627;-92
2021/08/06 02:54:36;;;;;;;2.90;1.50;;;;;;;19.42;64.02;98425.63;4980213;28;20237;-90
2021/08/06 02:57:04;;;;;;;2.23;1.70;;;;;;;19.44;63.75;98437.03;4980414;28;20234;-91
2021/08/06 02:59:31;;;;;;;1.60;1.50;;;;;;;19.27;64.49;98427.56;4980308;28;20228;-91
2021/08/06 03:01:58;;;;;;;2.10;1.50;;;;;;;19.36;64.10;98436.59;4980003;28;20235;-91
2021/08/06 03:04:26;;;;;;;1.50;1.40;;;;;;;19.34;64.14;98436.13;4995203;28;20235;-91
2021/08/06 03:06:54;;;;;;;1.60;1.50;;;;;;;19.33;64.26;98453.50;4980779;28;20228;-91
2021/08/06 03:09:22;;;;;;;1.70;1.50;;;;;;;19.12;64.09;98425.19;4995870;28;20235;-91
2021/08/06 03:11:50;;;;;;;2.33;1.60;;;;;;;19.22;64.84;98454.06;4979969;28;20228;-90
2021/08/06 03:14:17;;;;;;;1.90;1.80;;;;;;;19.16;64.89;98441.69;4995651;28;20609;-92
2021/08/06 03:16:44;;;;;;;3.40;1.60;;;;;;;19.17;64.70;98449.53;4979918;28;20228;-91
2021/08/06 03:19:10;;;;;;;1.93;1.40;;;;;;;19.08;64.59;98451.34;4996297;28;20308;-91
2021/08/06 03:21:38;;;;;;;2.97;1.70;;;;;;;19.05;65.13;98451.94;4979840;28;20235;-92
2021/08/06 03:24:08;;;;;;;3.60;1.60;;;;;;;19.05;65.24;98448.41;4994987;28;20631;-92
2021/08/06 03:26:36;;;;;;;1.80;1.70;;;;;;;19.03;65.32;98446.03;4995631;28;20234;-91
2021/08/06 03:29:04;;;;;;;2.03;1.53;;;;;;;18.97;65.73;98449.94;4995696;28;20228;-91
2021/08/06 03:31:31;;;;;;;2.23;1.50;;;;;;;18.92;65.97;98450.03;4979561;28;20306;-91
2021/08/06 03:33:59;;;;;;;1.60;1.50;;;;;;;18.97;65.54;98460.00;4995378;28;20248;-91
2021/08/06 03:36:26;;;;;;;1.80;1.70;;;;;;;18.84;65.66;98448.84;4995298;28;20302;-92
2021/08/06 03:38:54;;;;;;;1.60;1.50;;;;;;;18.91;65.74;98454.66;4944622;28;20236;-91
2021/08/06 03:41:22;;;;;;;3.00;1.60;;;;;;;18.95;65.58;98454.84;4928674;28;20282;-91
2021/08/06 03:43:52;;;;;;;1.73;1.60;;;;;;;18.93;65.08;98448.94;4975792;28;20236;-92
2021/08/06 03:46:20;;;;;;;3.00;1.50;;;;;;;18.94;65.35;98455.19;4959671;28;20647;-91
2021/08/06 03:48:47;;;;;;;2.77;1.70;;;;;;;19.07;64.83;98457.06;4976425;28;20232;-91
2021/08/06 03:51:14;;;;;;;1.77;1.67;;;;;;;19.13;64.35;98453.94;4976292;28;20248;-92
2021/08/06 03:53:42;;;;;;;1.73;1.63;;;;;;;19.24;64.25;98459.97;4976391;28;20255;-91
2021/08/06 03:56:09;;;;;;;1.83;1.73;;;;;;;19.33;64.07;98469.81;4991713;28;20235;-92
2021/08/06 03:58:35;;;;;;;1.53;1.43;;;;;;;19.68;62.85;98479.13;4976054;28;20287;-91
2021/08/06 04:01:03;;;;;;;1.70;1.60;;;;;;;19.87;62.29;98470.00;4975714;28;20232;-92
2021/08/06 04:03:33;;;;;;;1.97;1.53;;;;;;;19.86;62.36;98461.03;4960539;28;20236;-92
2021/08/06 04:06:05;;;;;;;3.57;1.73;;;;;;;19.87;61.70;98454.50;4974503;28;20320;-92
2021/08/06 04:08:32;;;;;;;1.50;1.40;;;;;;;19.84;61.96;98465.97;4959904;28;20327;-91
2021/08/06 04:10:59;;;;;;;1.90;1.80;;;;;;;19.87;61.57;98459.13;4992089;28;20635;-91
2021/08/06 04:13:26;;;;;;;1.57;1.40;;;;;;;19.99;61.27;98464.81;4959831;28;20227;-92
2021/08/06 04:15:54;;;;;;;1.67;1.40;;;;;;;20.16;60.81;98470.34;4959847;28;20228;-91
2021/08/06 04:18:22;;;;;;;2.23;1.40;;;;;;;20.32;60.33;98471.63;4959376;28;20614;-90
2021/08/06 04:20:49;;;;;;;1.80;1.70;;;;;;;20.46;59.76;98466.91;4975509;28;20232;-91
2021/08/06 04:23:16;;;;;;;1.63;1.53;;;;;;;20.64;58.90;98456.91;4959848;28;20315;-92
2021/08/06 04:25:43;;;;;;;3.10;1.70;;;;;;;20.91;58.68;98462.13;4975306;28;20251;-91
2021/08/06 04:28:10;;;;;;;1.40;1.30;;;;;;;20.95;58.90;98457.66;4959338;28;20239;-91
2021/08/06 04:30:37;;;;;;;1.93;1.30;;;;;;;21.18;57.53;98463.06;4975666;28;20246;-92
2021/08/06 04:33:05;;;;;;;1.77;1.50;;;;;;;21.27;57.48;98453.81;4959804;28;20672;-91
2021/08/06 04:35:32;;;;;;;1.40;1.30;;;;;;;21.39;57.24;98458.63;4959480;28;20259;-92
2021/08/06 04:38:00;;;;;;;1.67;1.37;;;;;;;21.52;56.38;98461.19;4976268;28;20545;-91
2021/08/06 04:40:29;;;;;;;1.80;1.10;;;;;;;21.76;55.99;98460.72;4962341;28;20232;-90
2021/08/06 04:42:57;;;;;;;1.60;1.40;;;;;;;21.92;55.82;98461.06;4995306;28;20258;-91
2021/08/06 04:45:26;;;;;;;2.00;1.30;;;;;;;22.09;55.24;98471.97;4995058;28;20234;-91
2021/08/06 04:47:55;;;;;;;1.40;1.30;;;;;;;22.29;54.46;98454.13;4995198;28;20255;-90
2021/08/06 04:50:23;;;;;;;1.27;1.17;;;;;;;22.34;54.02;98465.69;4978534;28;20235;-91
2021/08/06 04:52:54;;;;;;;1.37;1.10;;;;;;;22.55;53.70;98451.31;4948417;28;20231;-90
2021/08/06 04:55:21;;;;;;;2.00;1.10;;;;;;;22.83;52.65;98453.34;4978991;28;20719;-91
2021/08/06 04:57:50;;;;;;;1.53;1.20;;;;;;;23.00;51.88;98457.13;4994894;28;20236;-91
2021/08/06 05:00:18;;;;;;;0.97;0.97;;;;;;;23.10;51.57;98462.19;4978683;28;20225;-89
2021/08/06 05:02:46;;;;;;;1.30;1.20;;;;;;;23.06;51.49;98462.06;4979079;28;20251;-90
2021/08/06 05:05:13;;;;;;;0.97;0.90;;;;;;;22.87;51.62;98467.13;4979023;28;20229;-91
2021/08/06 05:07:40;;;;;;;0.87;0.83;;;;;;;22.96;51.65;98475.28;4995146;28;20309;-91
2021/08/06 05:10:08;;;;;;;1.60;1.00;;;;;;;22.82;51.97;98492.69;4978754;28;20809;-90
2021/08/06 05:12:35;;;;;;;1.57;1.10;;;;;;;22.84;52.07;98486.91;4978997;28;20354;-90
2021/08/06 05:15:01;;;;;;;1.00;1.00;;;;;;;22.99;51.67;98485.56;4994894;28;20265;-91
2021/08/06 05:17:28;;;;;;;1.10;1.00;;;;;;;23.05;51.24;98476.84;4978880;28;20236;-91
2021/08/06 05:19:57;;;;;;;1.07;0.90;;;;;;;23.07;50.58;98495.66;4949116;28;20244;-90
2021/08/06 05:22:27;;;;;;;1.33;0.90;;;;;;;23.19;50.61;98495.75;4955702;29;20265;-91
2021/08/06 05:24:54;;;;;;;1.20;1.10;;;;;;;23.24;51.01;98492.81;4924607;29;20259;-90
2021/08/06 05:27:23;;;;;;;1.53;1.00;;;;;;;23.33;50.60;98509.19;4974312;28;20235;-91
2021/08/06 05:29:50;;;;;;;1.00;1.00;;;;;;;23.49;50.32;98515.72;4991990;28;20231;-89
2021/08/06 05:32:17;;;;;;;1.20;1.10;;;;;;;23.36;50.51;98512.06;4975280;28;20533;-91
2021/08/06 05:34:45;;;;;;;1.10;1.10;;;;;;;23.34;50.66;98510.78;4960076;28;20535;-91
2021/08/06 05:37:13;;;;;;;1.43;1.10;;;;;;;23.37;50.46;98515.59;4959475;28;20285;-90
2021/08/06 05:39:41;;;;;;;1.20;1.10;;;;;;;23.32;50.61;98519.31;4958932;28;20251;-91
2021/08/06 05:42:09;;;;;;;1.03;1.03;;;;;;;23.23;50.75;98515.84;4958881;28;20542;-90
2021/08/06 05:44:37;;;;;;;1.77;1.30;;;;;;;23.25;50.87;98519.03;4944176;28;20235;-91
2021/08/06 05:47:03;;;;;;;1.10;1.10;;;;;;;23.08;51.56;98525.38;4943324;29;20240;-90
2021/08/06 05:49:30;;;;;;;1.33;1.23;;;;;;;23.01;51.69;98518.81;4959188;29;20228;-90
2021/08/06 05:51:57;;;;;;;1.10;1.10;;;;;;;23.04;51.66;98524.44;4959226;28;20286;-90
2021/08/06 05:54:24;;;;;;;1.20;1.10;;;;;;;23.00;51.62;98533.63;4943346;28;20681;-89
2021/08/06 05:56:53;;;;;;;1.30;1.20;;;;;;;22.91;51.56;98530.88;4958763;28;20235;-89
2021/08/06 05:59:20;;;;;;;1.53;1.30;;;;;;;22.82;51.86;98535.56;4959094;28;20246;-90
2021/08/06 06:01:48;;;;;;;1.20;1.10;;;;;;;22.60;52.47;98533.03;4958855;29;20240;-90
2021/08/06 06:04:30;;;;;;;1.50;1.40;;;;;;;22.65;52.89;98541.88;4971200;28;20648;-90
2021/08/06 06:07:06;;;;;;;1.53;1.30;;;;;;;22.53;53.26;98544.47;4957758;28;20231;-91
2021/08/06 06:09:33;;;;;;;1.20;1.10;;;;;;;22.42;54.05;98553.31;4943326;28;20241;-90
2021/08/06 06:12:00;;;;;;;1.90;1.50;;;;;;;22.30;54.81;98553.97;4927651;29;20231;-92
2021/08/06 06:14:28;;;;;;;1.40;1.30;;;;;;;21.86;56.77;98534.03;4912148;29;20285;-93
2021/08/06 06:16:56;;;;;;;2.80;1.30;;;;;;;21.93;56.61;98547.19;4959259;28;20647;-93
2021/08/06 06:19:24;;;;;;;1.93;1.53;;;;;;;21.82;56.90;98562.25;4943358;28;20312;-92
2021/08/06 06:21:50;;;;;;;1.50;1.40;;;;;;;21.71;58.27;98561.75;4943487;28;20528;-92
2021/08/06 06:24:18;;;;;;;3.47;1.80;;;;;;;21.72;58.14;98565.28;4942555;29;20231;-94
2021/08/06 06:26:45;;;;;;;2.40;1.80;;;;;;;21.74;58.53;98566.53;4927237;29;20588;-92
2021/08/06 06:29:15;;;;;;;1.87;1.73;;;;;;;21.77;58.44;98570.59;4943735;28;20805;-89
2021/08/06 06:31:42;;;;;;;1.80;1.70;;;;;;;21.82;58.77;98570.44;4926885;29;20285;-91
2021/08/06 06:34:09;;;;;;;2.00;1.90;;;;;;;21.86;59.29;98574.94;4942370;28;20247;-91
2021/08/06 06:36:36;;;;;;;1.70;1.60;;;;;;;21.78;58.82;98562.09;4958605;28;20227;-89
2021/08/06 06:39:03;;;;;;;1.67;1.57;;;;;;;21.86;59.16;98579.56;4941150;28;20242;-90
2021/08/06 06:41:30;;;;;;;1.60;1.50;;;;;;;21.78;58.36;98564.81;4942495;29;20240;-95
2021/08/06 06:44:08;;;;;;;1.60;1.50;;;;;;;21.80;58.35;98572.66;4927730;29;20724;-92
2021/08/06 06:46:35;;;;;;;1.50;1.40;;;;;;;21.74;57.43;98572.00;4926887;29;20242;-93
2021/08/06 06:49:02;;;;;;;2.13;1.40;;;;;;;21.75;58.59;98573.63;4926433;29;20293;-89
2021/08/06 06:51:31;;;;;;;1.80;1.40;;;;;;;21.76;58.44;98563.50;4958329;28;20238;-94
2021/08/06 06:53:58;;;;;;;1.60;1.50;;;;;;;21.94;57.89;98571.44;4942159;29;20653;-95
2021/08/06 06:56:25;;;;;;;1.60;1.50;;;;;;;21.93;57.29;98564.38;4941682;29;20326;-90
2021/08/06 06:58:53;;;;;;;1.80;1.50;;;;;;;22.05;57.66;98571.94;4926258;29;20318;-89
2021/08/06 07:01:22;;;;;;;2.37;1.37;;;;;;;22.21;57.37;98564.84;4958325;28;20573;-89
2021/08/06 07:03:49;;;;;;;1.67;1.53;;;;;;;22.48;56.63;98574.66;4941819;28;20238;-89
2021/08/06 07:06:19;;;;;;;1.80;1.70;;;;;;;22.96;56.03;98577.16;4957135;28;20306;-89
2021/08/06 07:08:46;;;;;;;3.10;1.77;;;;;;;23.30;54.53;98576.22;4941608;28;20256;-88
2021/08/06 07:11:14;;;;;;;2.10;1.63;;;;;;;23.79;53.00;98571.19;4957538;28;20238;-89
2021/08/06 07:13:41;;;;;;;1.60;1.50;;;;;;;24.19;53.16;98574.28;4941260;29;20245;-88
2021/08/06 07:16:07;;;;;;;2.40;1.80;;;;;;;24.66;50.94;98580.31;4940938;29;20242;-88
2021/08/06 07:18:35;;;;;;;2.20;1.80;;;;;;;25.30;50.36;98583.34;4957484;28;20285;-91
2021/08/06 07:21:04;;;;;;;1.70;1.60;;;;;;;25.55;48.43;98575.97;4941422;29;20257;-90
2021/08/06 07:23:33;;;;;;;1.73;1.60;;;;;;;25.89;48.68;98577.44;4942278;28;20237;-91
2021/08/06 07:26:00;;;;;;;1.97;1.60;;;;;;;26.03;48.28;98561.38;4925063;29;20232;-88
2021/08/06 07:28:27;;;;;;;4.25;1.90;;;;;;;25.78;48.62;98579.84;4955370;29;20235;-91
2021/08/06 07:30:54;;;;;;;1.50;1.40;;;;;;;25.70;47.91;98564.31;4924725;29;20230;-90
2021/08/06 07:33:23;;;;;;;1.65;1.55;;;;;;;25.56;48.10;98574.81;4925271;29;20322;-88
2021/08/06 07:35:51;;;;;;;1.73;1.63;;;;;;;25.73;48.42;98580.06;4925157;29;20239;-91
2021/08/06 07:38:18;;;;;;;1.95;1.70;;;;;;;26.17;47.37;98570.03;4940168;29;20235;-89
2021/08/06 07:40:45;;;;;;;1.70;1.60;;;;;;;26.38;46.81;98567.13;4940833;29;20238;-89
2021/08/06 07:43:12;;;;;;;2.53;1.70;;;;;;;26.58;45.22;98561.44;4941253;29;20242;-91
2021/08/06 07:45:38;;;;;;;2.72;1.60;;;;;;;26.51;46.09;98563.19;4956435;28;20224;-89
2021/08/06 07:48:05;;;;;;;1.73;1.50;;;;;;;26.38;45.93;98554.19;4971455;28;20542;-87
2021/08/06 07:50:32;;;;;;;1.70;1.60;;;;;;;26.49;46.58;98557.25;4956420;28;20241;-87
2021/08/06 07:52:59;;;;;;;1.48;1.38;;;;;;;26.07;45.49;98551.31;4940535;29;20553;-85
2021/08/06 07:55:26;;;;;;;2.45;1.40;;;;;;;26.02;45.64;98563.34;4956773;28;20294;-91
2021/08/06 07:57:53;;;;;;;1.45;1.35;;;;;;;26.04;45.39;98562.97;4956704;28;20255;-89
2021/08/06 08:00:21;;;;;;;1.40;1.30;;;;;;;25.67;45.85;98554.00;4940417;28;20680;-86
2021/08/06 08:02:50;;;;;;;1.42;1.35;;;;;;;25.35;46.72;98561.19;4924922;29;20283;-90
2021/08/06 08:05:23;;;;;;;1.50;1.40;;;;;;;25.37;47.12;98559.72;4942396;28;20295;-91
2021/08/06 08:07:56;;;;;;;2.55;1.42;;;;;;;25.27;47.18;98553.88;4940481;29;20225;-90
2021/08/06 08:10:25;;;;;;;1.42;1.30;;;;;;;25.11;47.98;98572.13;4908708;29;20267;-86
2021/08/06 08:13:09;;;;;;;1.60;1.50;;;;;;;25.04;48.50;98549.97;4959043;28;20233;-89
2021/08/06 08:15:38;;;;;;;1.50;1.40;;;;;;;25.44;48.24;98559.13;4925106;29;20251;-87
2021/08/06 08:18:06;;;;;;;1.73;1.42;;;;;;;25.44;47.46;98564.63;4955706;29;20572;-86
2021/08/06 08:20:33;;;;;;;1.52;1.42;;;;;;;25.43;47.06;98561.06;4956582;28;20286;-88
2021/08/06 08:23:00;;;;;;;1.65;1.55;;;;;;;25.12;47.64;98573.72;4956650;28;20318;-87
2021/08/06 08:25:27;;;;;;;1.50;1.40;;;;;;;24.98;47.99;98565.81;4956528;28;20608;-87
2021/08/06 08:27:54;;;;;;;1.55;1.45;;;;;;;24.99;47.69;98564.69;4972738;28;20239;-88
2021/08/06 08:30:21;;;;;;;1.60;1.50;;;;;;;25.14;47.78;98561.31;4940169;29;20631;-89
2021/08/06 08:32:48;;;;;;;1.47;1.37;;;;;;;25.02;48.55;98566.75;4956394;28;20584;-90
2021/08/06 08:35:15;;;;;;;1.50;1.40;;;;;;;25.12;47.71;98582.75;4940361;29;20316;-87
2021/08/06 08:37:42;;;;;;;1.40;1.30;;;;;;;25.14;47.92;98571.47;4940248;28;20242;-89
2021/08/06 08:40:10;;;;;;;1.52;1.42;;;;;;;25.23;48.19;98567.47;4923680;29;20237;-90
2021/08/06 08:42:38;;;;;;;1.85;1.30;;;;;;;25.28;47.77;98569.19;4955586;29;20707;-88
2021/08/06 08:45:07;;;;;;;1.38;1.30;;;;;;;25.58;47.60;98576.06;4987512;28;20244;-88
2021/08/06 08:47:35;;;;;;;4.82;1.80;;;;;;;25.86;46.39;98581.66;4955687;28;20232;-88
2021/08/06 08:50:05;;;;;;;3.63;1.40;;;;;;;26.11;45.99;98563.19;4955343;28;20267;-90
2021/08/06 08:52:33;;;;;;;1.50;1.40;;;;;;;26.60;45.26;98575.63;4955649;28;20235;-89
2021/08/06 08:55:00;;;;;;;1.80;1.40;;;;;;;27.26;43.93;98568.72;4956189;28;20321;-85
2021/08/06 08:57:27;;;;;;;2.35;1.40;;;;;;;27.03;44.13;98574.84;4955692;28;20252;-87
2021/08/06 08:59:55;;;;;;;1.27;1.20;;;;;;;26.70;44.41;98577.88;4955594;28;20707;-85
2021/08/06 09:02:24;;;;;;;1.90;1.20;;;;;;;26.89;44.24;98573.66;4958086;28;20239;-86
2021/08/06 09:05:16;;;;;;;1.67;1.13;;;;;;;26.91;43.99;98588.69;4954666;28;20228;-86
2021/08/06 09:07:53;;;;;;;1.33;1.23;;;;;;;26.94;44.11;98581.66;4962554;28;20246;-86
2021/08/06 09:10:41;;;;;;;1.35;1.20;;;;;;;27.03;43.88;98579.53;4951921;28;20254;-85
2021/08/06 09:13:34;;;;;;;1.45;1.35;;;;;;;27.21;43.12;98580.00;4953231;28;20244;-86
2021/08/06 09:16:13;;;;;;;1.50;1.40;;;;;;;27.16;43.00;98581.84;4979873;28;20587;-86
2021/08/06 09:18:43;;;;;;;1.65;1.42;;;;;;;27.50;42.50;98571.34;4994540;28;20235;-86
2021/08/06 09:21:16;;;;;;;2.10;1.55;;;;;;;27.69;41.80;98587.91;4978222;28;20224;-86
2021/08/06 09:23:56;;;;;;;1.83;1.58;;;;;;;27.66;41.20;98588.63;5010975;28;20706;-86
2021/08/06 09:26:26;;;;;;;1.40;1.30;;;;;;;27.96;40.06;98583.41;4962256;28;20554;-86
2021/08/06 09:29:19;;;;;;;1.35;1.35;;;;;;;28.22;40.08;98580.88;4978070;28;20284;-87
2021/08/06 09:32:00;;;;;;;2.20;1.67;;;;;;;27.85;40.95;98590.66;4978088;28;20247;-86
2021/08/06 09:34:36;;;;;;;1.52;1.42;;;;;;;28.23;39.90;98587.19;4977856;28;20250;-86
2021/08/06 09:37:15;;;;;;;1.33;1.33;;;;;;;28.53;39.28;98579.13;4961928;28;20286;-86
2021/08/06 09:39:50;;;;;;;1.60;1.50;;;;;;;29.29;38.14;98584.53;4946477;28;20509;-85
2021/08/06 09:42:21;;;;;;;2.30;1.60;;;;;;;29.44;37.27;98582.84;4962117;28;20239;-85
2021/08/06 09:45:09;;;;;;;1.38;1.38;;;;;;;28.75;38.91;98586.69;4961917;28;20582;-85
2021/08/06 09:47:39;;;;;;;1.50;1.40;;;;;;;28.87;37.98;98581.03;4961928;28;20314;-86
2021/08/06 09:50:12;;;;;;;2.20;1.50;;;;;;;28.82;38.63;98581.31;4945673;28;20235;-86
2021/08/06 09:52:42;;;;;;;1.55;1.45;;;;;;;28.89;38.06;98571.22;4994041;28;20294;-86
2021/08/06 09:55:30;;;;;;;1.20;1.10;;;;;;;27.99;39.40;98569.75;4991744;28;20234;-85
2021/08/06 09:57:59;;;;;;;1.65;1.20;;;;;;;28.28;40.28;98573.13;4946498;28;20263;-86
2021/08/06 10:00:30;;;;;;;1.27;1.10;;;;;;;28.30;39.69;98557.03;4962673;28;20239;-86
2021/08/06 10:02:58;;;;;;;1.00;1.00;;;;;;;27.91;39.80;98564.41;4977791;28;20649;-85
2021/08/06 10:05:27;;;;;;;1.40;1.30;;;;;;;28.12;39.63;98562.19;4977315;28;20251;-86
2021/08/06 10:07:56;;;;;;;1.70;1.10;;;;;;;28.15;39.53;98550.44;4945864;28;20254;-84
2021/08/06 10:10:35;;;;;;;1.10;1.00;;;;;;;28.02;40.05;98548.94;4977295;28;20292;-85
2021/08/06 10:13:03;;;;;;;1.27;1.17;;;;;;;28.28;39.75;98556.59;4978036;28;20292;-86
2021/08/06 10:15:31;;;;;;;1.30;1.20;;;;;;;28.21;39.98;98551.75;4977115;28;20227;-85
2021/08/06 10:17:59;;;;;;;1.10;1.10;;;;;;;28.49;39.51;98545.22;4961703;28;20230;-86
2021/08/06 10:20:27;;;;;;;1.45;1.10;;;;;;;28.56;38.98;98548.09;4961089;28;20242;-85
2021/08/06 10:22:54;;;;;;;2.25;0.90;;;;;;;28.81;38.04;98560.44;4945791;28;20242;-85
2021/08/06 10:25:23;;;;;;;1.42;1.10;;;;;;;28.95;38.05;98566.19;4977227;28;20322;-85
2021/08/06 10:27:50;;;;;;;1.33;1.00;;;;;;;28.49;38.79;98548.78;4993103;28;20243;-85
2021/08/06 10:30:23;;;;;;;1.70;1.00;;;;;;;28.73;38.23;98562.25;4960748;28;20234;-86
2021/08/06 10:33:25;;;;;;;1.00;1.00;;;;;;;28.93;37.67;98568.50;4945684;28;20239;-86
2021/08/06 10:36:04;;;;;;;1.02;1.02;;;;;;;28.75;39.86;98557.16;4945564;28;20590;-85
2021/08/06 10:38:39;;;;;;;1.48;1.10;;;;;;;28.58;38.32;98560.34;4961010;28;20237;-86
2021/08/06 10:41:16;;;;;;;2.63;1.08;;;;;;;28.27;38.21;98550.31;4945090;28;20231;-85
2021/08/06 10:43:50;;;;;;;1.10;1.10;;;;;;;28.24;38.75;98552.97;4977159;28;20240;-85
2021/08/06 10:46:18;;;;;;;1.58;1.35;;;;;;;28.09;39.00;98529.81;4976423;28;20283;-85
2021/08/06 10:48:53;;;;;;;1.67;1.10;;;;;;;28.37;39.66;98546.16;4945063;28;20690;-86
2021/08/06 10:51:26;;;;;;;1.40;1.30;;;;;;;28.19;39.94;98539.47;4976870;28;20230;-87
2021/08/06 10:53:55;;;;;;;2.20;1.20;;;;;;;28.55;37.95;98543.75;4977069;28;20231;-87
2021/08/06 10:56:30;;;;;;;1.10;1.10;;;;;;;28.50;39.26;98535.78;4992575;28;20297;-87
2021/08/06 10:58:59;;;;;;;1.90;1.05;;;;;;;28.69;39.32;98544.84;4961554;28;20232;-89
2021/08/06 11:01:25;;;;;;;1.23;1.20;;;;;;;28.94;38.70;98547.25;4993405;28;20227;-86
2021/08/06 11:03:55;;;;;;;1.88;1.10;;;;;;;29.05;37.19;98548.25;4993159;28;20235;-84
2021/08/06 11:06:38;;;;;;;1.77;1.20;;;;;;;28.73;38.25;98542.97;4975936;28;20242;-86
2021/08/06 11:09:09;;;;;;;1.40;1.00;;;;;;;28.60;37.81;98536.00;4992858;28;20236;-85
2021/08/06 11:11:48;;;;;;;2.08;1.13;;;;;;;28.96;38.74;98537.47;5008913;28;20233;-85
2021/08/06 11:14:36;;;;;;;1.33;1.25;;;;;;;28.73;37.92;98540.22;4980926;28;20291;-85
2021/08/06 11:17:15;;;;;;;1.17;1.08;;;;;;;28.59;37.07;98530.84;4980266;28;20506;-86
2021/08/06 11:20:05;;;;;;;1.30;1.20;;;;;;;28.52;38.43;98528.75;4945446;28;20234;-87
2021/08/06 11:22:43;;;;;;;1.33;1.10;;;;;;;29.00;37.03;98532.03;4953105;28;20238;-84
2021/08/06 11:25:23;;;;;;;1.45;1.30;;;;;;;28.84;36.04;98526.59;4951426;28;20592;-86
2021/08/06 11:27:51;;;;;;;1.45;1.35;;;;;;;29.18;36.31;98524.84;4984249;28;20650;-85
2021/08/06 11:30:29;;;;;;;1.52;1.30;;;;;;;29.64;36.71;98528.34;4982245;28;20225;-85
2021/08/06 11:33:03;;;;;;;1.30;1.20;;;;;;;29.50;34.76;98514.34;4984351;28;20225;-85
2021/08/06 11:35:37;;;;;;;2.00;1.40;;;;;;;28.98;34.67;98515.03;4968226;28;20519;-85
2021/08/06 11:38:11;;;;;;;1.48;1.38;;;;;;;29.43;33.48;98509.53;4982552;28;20715;-85
2021/08/06 11:40:40;;;;;;;1.40;1.30;;;;;;;29.65;33.73;98511.44;4983766;28;20562;-85
2021/08/06 11:43:30;;;;;;;1.40;1.30;;;;;;;29.83;33.49;98508.09;4964551;28;20677;-85
2021/08/06 11:46:10;;;;;;;2.55;1.30;;;;;;;29.85;32.14;98506.56;4944228;28;20246;-84
2021/08/06 11:48:58;;;;;;;1.63;1.27;;;;;;;30.04;31.88;98487.13;4975246;28;20250;-85
2021/08/06 11:51:25;;;;;;;1.92;1.50;;;;;;;30.21;32.84;98502.31;4960230;28;20624;-86